Time;durP1;ratioP1;P1;durP2;ratioP2;P2;SDS_P1;SDS_P2;PMS_P1;PMS_P2;Temp;Humidity;BMP_temperature;BMP_pressure;BME280_temperature;BME280_humidity;BME280_pressure;Samples;Min_cycle;Max_cycle;Signal;HPM_P1;HPM_P2
2023/04/28 00:00:50;;;;;;;0.70;0.70;;;;;9.90;95835.00;;;;5076041;28;20203;-63
2023/04/28 00:03:18;;;;;;;0.90;0.90;;;;;10.00;95834.00;;;;5075712;28;20215;-63
2023/04/28 00:05:45;;;;;;;0.70;0.70;;;;;10.00;95823.00;;;;5075650;28;20199;-63
2023/04/28 00:08:13;;;;;;;0.80;0.80;;;;;10.00;95828.00;;;;5075653;28;20191;-63
2023/04/28 00:10:40;;;;;;;0.80;0.80;;;;;10.00;95833.00;;;;5075745;28;20209;-63
2023/04/28 00:13:09;;;;;;;1.03;1.03;;;;;10.00;95833.00;;;;5075224;28;20208;-63
2023/04/28 00:15:37;;;;;;;1.10;1.10;;;;;10.00;95824.00;;;;5075294;28;20199;-63
2023/04/28 00:18:04;;;;;;;1.23;1.13;;;;;10.10;95824.00;;;;5075817;28;20203;-63
2023/04/28 00:20:32;;;;;;;1.40;1.30;;;;;10.10;95814.00;;;;5075189;28;20196;-63
2023/04/28 00:22:59;;;;;;;0.90;0.90;;;;;10.00;95804.00;;;;5075065;28;20215;-63
2023/04/28 00:25:27;;;;;;;0.80;0.80;;;;;10.00;95813.00;;;;5075317;28;20269;-63
2023/04/28 00:27:54;;;;;;;0.90;0.90;;;;;10.10;95807.00;;;;5075062;28;20732;-63
2023/04/28 00:30:24;;;;;;;0.70;0.70;;;;;10.10;95801.00;;;;5075019;28;20223;-63
2023/04/28 00:32:51;;;;;;;0.90;0.90;;;;;10.00;95793.00;;;;5074701;28;20223;-62
2023/04/28 00:35:19;;;;;;;0.70;0.70;;;;;9.90;95798.00;;;;5075168;28;20283;-63
2023/04/28 00:37:46;;;;;;;1.23;1.17;;;;;9.90;95797.00;;;;5075126;28;20199;-63
2023/04/28 00:40:14;;;;;;;0.70;0.70;;;;;9.90;95790.00;;;;5075027;28;20674;-63
2023/04/28 00:42:41;;;;;;;1.00;1.00;;;;;9.80;95788.00;;;;5075399;28;20218;-63
2023/04/28 00:45:10;;;;;;;1.37;1.27;;;;;9.80;95787.00;;;;5075294;28;20269;-63
2023/04/28 00:47:39;;;;;;;0.70;0.70;;;;;9.80;95791.00;;;;5075158;28;20686;-63
2023/04/28 00:50:09;;;;;;;0.60;0.60;;;;;9.80;95793.00;;;;5074843;28;20314;-63
2023/04/28 00:52:38;;;;;;;1.13;1.13;;;;;9.80;95795.00;;;;5075760;28;20212;-63
2023/04/28 00:55:07;;;;;;;0.80;0.80;;;;;9.80;95789.00;;;;5074416;28;20256;-64
2023/04/28 00:57:35;;;;;;;1.00;1.00;;;;;9.80;95784.00;;;;5074913;28;20260;-63
2023/04/28 01:00:03;;;;;;;1.03;1.03;;;;;9.90;95784.00;;;;5057200;28;20207;-63
2023/04/28 01:02:32;;;;;;;1.17;1.17;;;;;9.90;95785.00;;;;5075003;28;20200;-63
2023/04/28 01:05:01;;;;;;;0.93;0.93;;;;;9.80;95783.00;;;;5074686;28;20215;-63
2023/04/28 01:07:28;;;;;;;1.57;1.47;;;;;9.80;95778.00;;;;5074794;28;20195;-63
2023/04/28 01:09:56;;;;;;;0.87;0.87;;;;;9.70;95779.00;;;;5074130;28;20758;-63
2023/04/28 01:12:24;;;;;;;1.03;1.03;;;;;9.80;95766.00;;;;5074457;28;20206;-63
2023/04/28 01:14:51;;;;;;;1.33;1.20;;;;;9.80;95771.00;;;;5074054;28;20188;-63
2023/04/28 01:17:19;;;;;;;0.83;0.83;;;;;9.80;95770.00;;;;5074855;28;20215;-64
2023/04/28 01:19:46;;;;;;;0.90;0.90;;;;;9.80;95760.00;;;;5073996;28;20290;-63
2023/04/28 01:22:15;;;;;;;0.87;0.87;;;;;9.80;95763.00;;;;5073915;28;20276;-64
2023/04/28 01:24:44;;;;;;;1.10;1.10;;;;;9.80;95753.00;;;;5073787;28;20226;-63
2023/04/28 01:27:11;;;;;;;0.90;0.90;;;;;9.80;95755.00;;;;5073825;28;20200;-63
2023/04/28 01:29:39;;;;;;;0.67;0.67;;;;;9.90;95745.00;;;;5073786;28;20187;-63
2023/04/28 01:32:06;;;;;;;0.77;0.77;;;;;9.80;95753.00;;;;5074265;28;20198;-63
2023/04/28 01:34:34;;;;;;;1.30;1.30;;;;;9.80;95737.00;;;;5073652;28;20219;-62
2023/04/28 01:37:01;;;;;;;0.80;0.80;;;;;9.80;95749.00;;;;5073694;28;20187;-63
2023/04/28 01:39:29;;;;;;;0.93;0.93;;;;;9.80;95739.00;;;;5074087;28;20535;-63
2023/04/28 01:41:57;;;;;;;1.00;1.00;;;;;9.80;95741.00;;;;5073871;28;20249;-63
2023/04/28 01:44:25;;;;;;;0.67;0.67;;;;;9.80;95742.00;;;;5072751;28;20246;-63
2023/04/28 01:46:52;;;;;;;0.70;0.70;;;;;9.80;95747.00;;;;5055560;28;20750;-63
2023/04/28 01:49:20;;;;;;;1.30;1.20;;;;;9.90;95741.00;;;;5074246;28;20198;-63
2023/04/28 01:51:47;;;;;;;0.87;0.87;;;;;9.80;95736.00;;;;5073500;28;20658;-63
2023/04/28 01:54:27;;;;;;;1.00;1.00;;;;;9.80;95741.00;;;;5074212;28;20214;-63
2023/04/28 01:56:54;;;;;;;0.80;0.80;;;;;9.80;95733.00;;;;5073652;28;20203;-63
2023/04/28 01:59:23;;;;;;;1.33;1.23;;;;;9.80;95729.00;;;;5073298;28;20198;-63
2023/04/28 02:01:50;;;;;;;0.60;0.60;;;;;9.80;95724.00;;;;5073586;28;20195;-63
2023/04/28 02:04:18;;;;;;;0.63;0.63;;;;;9.80;95724.00;;;;5073721;28;20215;-64
2023/04/28 02:06:45;;;;;;;1.13;1.13;;;;;9.70;95722.00;;;;5073387;28;20238;-63
2023/04/28 02:09:12;;;;;;;0.70;0.70;;;;;9.70;95721.00;;;;5073703;28;20191;-63
2023/04/28 02:11:40;;;;;;;1.03;1.03;;;;;9.80;95709.00;;;;5073203;28;20662;-63
2023/04/28 02:14:07;;;;;;;2.33;1.57;;;;;9.80;95723.00;;;;5073321;28;20207;-63
2023/04/28 02:16:36;;;;;;;0.97;0.77;;;;;9.90;95725.00;;;;5073176;28;20621;-63
2023/04/28 02:19:03;;;;;;;0.70;0.70;;;;;9.90;95729.00;;;;5055256;28;20245;-63
2023/04/28 02:21:31;;;;;;;3.97;1.77;;;;;9.90;95725.00;;;;5073360;28;20257;-63
2023/04/28 02:23:59;;;;;;;0.70;0.70;;;;;9.80;95718.00;;;;5073332;28;20215;-63
2023/04/28 02:26:26;;;;;;;0.70;0.70;;;;;9.70;95715.00;;;;5073287;28;20195;-64
2023/04/28 02:28:54;;;;;;;0.90;0.90;;;;;9.80;95720.00;;;;5073027;28;20199;-64
2023/04/28 02:31:21;;;;;;;1.13;1.03;;;;;9.80;95721.00;;;;5073507;28;20195;-64
2023/04/28 02:33:50;;;;;;;0.93;0.93;;;;;9.90;95718.00;;;;5073054;28;20238;-63
2023/04/28 02:36:17;;;;;;;1.50;0.87;;;;;9.80;95723.00;;;;5074003;28;20188;-63
2023/04/28 02:38:44;;;;;;;0.60;0.60;;;;;9.90;95714.00;;;;5073209;28;20195;-63
2023/04/28 02:41:13;;;;;;;0.83;0.83;;;;;9.90;95729.00;;;;5072835;28;20651;-63
2023/04/28 02:43:41;;;;;;;0.70;0.70;;;;;10.00;95732.00;;;;5073106;28;20573;-63
2023/04/28 02:46:10;;;;;;;0.87;0.87;;;;;10.00;95725.00;;;;5055493;28;20322;-63
2023/04/28 02:48:37;;;;;;;3.13;0.90;;;;;10.00;95727.00;;;;5072873;28;20192;-63
2023/04/28 02:51:06;;;;;;;1.23;0.90;;;;;9.90;95719.00;;;;5072811;28;20187;-63
2023/04/28 02:53:33;;;;;;;0.83;0.83;;;;;10.00;95722.00;;;;5073009;28;20215;-63
2023/04/28 02:56:03;;;;;;;4.03;1.23;;;;;10.00;95726.00;;;;5076250;28;20237;-64
2023/04/28 02:58:30;;;;;;;7.23;1.47;;;;;10.10;95735.00;;;;5058701;28;20234;-64
2023/04/28 03:00:58;;;;;;;1.97;1.60;;;;;10.10;95718.00;;;;5058681;28;20203;-63
2023/04/28 03:03:25;;;;;;;0.80;0.80;;;;;10.10;95722.00;;;;5076801;28;20211;-64
2023/04/28 03:05:55;;;;;;;0.63;0.63;;;;;10.10;95709.00;;;;5077059;28;20218;-64
2023/04/28 03:08:24;;;;;;;1.17;1.17;;;;;10.10;95720.00;;;;5076646;28;20188;-63
2023/04/28 03:10:51;;;;;;;0.90;0.90;;;;;10.10;95718.00;;;;5076716;28;20192;-63
2023/04/28 03:13:18;;;;;;;4.73;1.73;;;;;10.20;95714.00;;;;5076671;28;20211;-63
2023/04/28 03:15:46;;;;;;;0.90;0.90;;;;;10.20;95706.00;;;;5076837;28;20192;-63
2023/04/28 03:18:13;;;;;;;1.00;1.00;;;;;10.20;95706.00;;;;5076307;28;20187;-64
2023/04/28 03:20:41;;;;;;;0.73;0.73;;;;;10.20;95708.00;;;;5077345;28;20187;-63
2023/04/28 03:23:08;;;;;;;0.80;0.80;;;;;10.20;95687.00;;;;5076107;28;20218;-63
2023/04/28 03:25:37;;;;;;;0.80;0.80;;;;;10.30;95688.00;;;;5076066;28;20223;-63
2023/04/28 03:28:04;;;;;;;1.07;1.07;;;;;10.30;95697.00;;;;5076482;28;20647;-62
2023/04/28 03:30:32;;;;;;;0.63;0.63;;;;;10.30;95700.00;;;;5076584;28;20278;-62
2023/04/28 03:32:59;;;;;;;1.20;1.20;;;;;10.30;95698.00;;;;5076113;28;20294;-62
2023/04/28 03:35:27;;;;;;;2.03;1.93;;;;;10.40;95690.00;;;;5076028;28;20179;-62
2023/04/28 03:37:54;;;;;;;0.90;0.90;;;;;10.30;95688.00;;;;5076161;28;20595;-63
2023/04/28 03:40:22;;;;;;;0.80;0.80;;;;;10.30;95681.00;;;;5075880;28;20191;-63
2023/04/28 03:42:51;;;;;;;1.13;1.13;;;;;10.30;95678.00;;;;5058375;28;20694;-63
2023/04/28 03:45:18;;;;;;;0.70;0.70;;;;;10.30;95672.00;;;;5075704;28;20215;-62
2023/04/28 03:47:45;;;;;;;1.13;1.13;;;;;10.30;95669.00;;;;5075798;28;20253;-63
2023/04/28 03:50:13;;;;;;;1.00;1.00;;;;;10.40;95668.00;;;;5076125;28;20222;-63
2023/04/28 03:52:40;;;;;;;0.93;0.93;;;;;10.30;95669.00;;;;5076360;28;20207;-63
2023/04/28 03:55:08;;;;;;;0.60;0.60;;;;;10.30;95660.00;;;;5076892;28;20187;-63
2023/04/28 03:57:36;;;;;;;0.80;0.80;;;;;10.20;95645.00;;;;5075588;28;20201;-63
2023/04/28 04:00:06;;;;;;;1.10;1.10;;;;;10.30;95655.00;;;;5057914;28;20557;-63
2023/04/28 04:02:34;;;;;;;0.90;0.90;;;;;10.30;95652.00;;;;5076614;28;20215;-63
2023/04/28 04:05:01;;;;;;;1.00;1.00;;;;;10.40;95653.00;;;;5075377;28;20277;-64
2023/04/28 04:07:28;;;;;;;1.07;1.07;;;;;10.40;95655.00;;;;5074690;28;20188;-63
2023/04/28 04:09:56;;;;;;;0.80;0.80;;;;;10.40;95653.00;;;;5075399;28;20532;-63
2023/04/28 04:12:23;;;;;;;1.03;1.03;;;;;10.40;95645.00;;;;5075544;28;20192;-63
2023/04/28 04:14:51;;;;;;;0.73;0.73;;;;;10.40;95644.00;;;;5075509;28;20681;-63
2023/04/28 04:17:19;;;;;;;0.73;0.73;;;;;10.40;95648.00;;;;5057183;28;20196;-63
2023/04/28 04:19:47;;;;;;;0.70;0.70;;;;;10.60;95642.00;;;;5075179;28;20278;-62
2023/04/28 04:22:14;;;;;;;1.03;1.03;;;;;10.70;95642.00;;;;5075480;28;20188;-63
2023/04/28 04:24:42;;;;;;;0.80;0.80;;;;;10.70;95646.00;;;;5075109;28;20199;-63
2023/04/28 04:27:09;;;;;;;1.40;1.40;;;;;10.60;95638.00;;;;5074889;28;20191;-63
2023/04/28 04:29:36;;;;;;;0.70;0.70;;;;;10.50;95640.00;;;;5075003;28;20198;-63
2023/04/28 04:32:04;;;;;;;1.10;1.10;;;;;10.50;95641.00;;;;5075613;28;20245;-63
2023/04/28 04:34:33;;;;;;;0.70;0.70;;;;;10.50;95637.00;;;;5074779;28;20223;-63
2023/04/28 04:37:01;;;;;;;1.10;1.10;;;;;10.60;95634.00;;;;5074854;28;20308;-62
2023/04/28 04:39:28;;;;;;;0.93;0.93;;;;;10.70;95636.00;;;;5075067;28;20646;-63
2023/04/28 04:41:56;;;;;;;0.80;0.80;;;;;10.80;95629.00;;;;5074858;28;20191;-63
2023/04/28 04:44:24;;;;;;;0.77;0.77;;;;;11.00;95618.00;;;;5074515;28;20699;-63
2023/04/28 04:46:51;;;;;;;0.60;0.60;;;;;10.90;95629.00;;;;5074848;28;20243;-63
2023/04/28 04:49:19;;;;;;;1.03;1.03;;;;;10.90;95641.00;;;;5074904;28;20198;-63
2023/04/28 04:51:47;;;;;;;0.93;0.93;;;;;10.70;95644.00;;;;5074525;28;20191;-63
2023/04/28 04:54:15;;;;;;;1.03;1.03;;;;;10.80;95652.00;;;;5074853;28;20211;-62
2023/04/28 04:56:42;;;;;;;1.17;1.07;;;;;10.80;95639.00;;;;5074764;28;20585;-63
2023/04/28 04:59:10;;;;;;;0.60;0.60;;;;;10.80;95638.00;;;;5074299;28;20199;-63
2023/04/28 05:01:37;;;;;;;1.70;1.43;;;;;10.80;95643.00;;;;5074259;28;20199;-63
2023/04/28 05:04:05;;;;;;;0.60;0.60;;;;;10.80;95639.00;;;;5074445;28;20211;-62
2023/04/28 05:06:32;;;;;;;0.83;0.83;;;;;10.70;95635.00;;;;5074205;28;20211;-63
2023/04/28 05:09:01;;;;;;;0.90;0.90;;;;;10.90;95636.00;;;;5056892;28;20206;-62
2023/04/28 05:11:28;;;;;;;1.13;1.13;;;;;11.10;95637.00;;;;5074351;28;20191;-63
2023/04/28 05:13:56;;;;;;;1.00;1.00;;;;;11.00;95648.00;;;;5074195;28;20705;-63
2023/04/28 05:16:23;;;;;;;1.33;1.10;;;;;11.00;95650.00;;;;5074315;28;20192;-63
2023/04/28 05:18:51;;;;;;;0.80;0.80;;;;;10.90;95651.00;;;;5073876;28;20203;-64
2023/04/28 05:21:18;;;;;;;2.37;0.97;;;;;10.90;95653.00;;;;5074174;28;20547;-63
2023/04/28 05:23:46;;;;;;;0.83;0.83;;;;;10.80;95642.00;;;;5074361;28;20219;-63
2023/04/28 05:26:15;;;;;;;0.77;0.77;;;;;10.80;95661.00;;;;5074031;28;20216;-63
2023/04/28 05:28:43;;;;;;;1.30;1.20;;;;;10.80;95644.00;;;;5073829;28;20237;-63
2023/04/28 05:31:10;;;;;;;0.60;0.60;;;;;10.70;95647.00;;;;5073986;28;20248;-63
2023/04/28 05:33:38;;;;;;;1.00;1.00;;;;;10.70;95641.00;;;;5073668;28;20223;-63
2023/04/28 05:36:06;;;;;;;0.90;0.90;;;;;10.90;95646.00;;;;5073611;28;20195;-63
2023/04/28 05:38:33;;;;;;;0.90;0.90;;;;;10.80;95651.00;;;;5073722;28;20188;-63
2023/04/28 05:41:01;;;;;;;0.70;0.70;;;;;10.70;95646.00;;;;5073570;28;20197;-63
2023/04/28 05:43:30;;;;;;;1.43;1.33;;;;;10.50;95638.00;;;;5073615;28;20701;-64
2023/04/28 05:45:58;;;;;;;0.83;0.83;;;;;10.70;95637.00;;;;5073466;28;20219;-63
2023/04/28 05:48:25;;;;;;;1.33;1.33;;;;;10.60;95640.00;;;;5073528;28;20630;-63
2023/04/28 05:50:53;;;;;;;0.80;0.80;;;;;10.80;95635.00;;;;5073874;28;20561;-63
2023/04/28 05:53:20;;;;;;;0.63;0.63;;;;;10.70;95641.00;;;;5073366;28;20218;-63
2023/04/28 05:55:48;;;;;;;0.93;0.93;;;;;10.80;95632.00;;;;5073640;28;20253;-63
2023/04/28 05:58:15;;;;;;;0.73;0.73;;;;;10.90;95630.00;;;;5073665;28;20221;-63
2023/04/28 06:00:44;;;;;;;1.10;1.10;;;;;10.80;95624.00;;;;5073686;28;20196;-63
2023/04/28 06:03:13;;;;;;;1.00;1.00;;;;;10.90;95634.00;;;;5052567;28;20294;-62
2023/04/28 06:05:41;;;;;;;1.00;1.00;;;;;10.90;95628.00;;;;5069451;28;20222;-61
2023/04/28 06:08:08;;;;;;;1.13;1.13;;;;;10.90;95627.00;;;;5070159;28;20206;-60
2023/04/28 06:10:36;;;;;;;0.80;0.80;;;;;11.00;95632.00;;;;5072009;28;20203;-63
2023/04/28 06:13:05;;;;;;;0.60;0.60;;;;;11.20;95629.00;;;;5071304;28;20219;-61
2023/04/28 06:15:32;;;;;;;0.60;0.60;;;;;11.10;95626.00;;;;5071470;28;20270;-62
2023/04/28 06:18:01;;;;;;;0.93;0.93;;;;;11.20;95627.00;;;;5071230;28;20198;-66
2023/04/28 06:20:29;;;;;;;0.67;0.67;;;;;11.30;95625.00;;;;5070156;28;20195;-62
2023/04/28 06:22:56;;;;;;;1.20;1.20;;;;;11.30;95629.00;;;;5070688;28;20379;-62
2023/04/28 06:25:24;;;;;;;0.50;0.50;;;;;11.40;95636.00;;;;5070939;28;20210;-61
2023/04/28 06:27:51;;;;;;;0.80;0.80;;;;;11.30;95634.00;;;;5070189;28;20219;-62
2023/04/28 06:30:19;;;;;;;1.33;1.33;;;;;11.20;95631.00;;;;5071129;28;20266;-61
2023/04/28 06:32:47;;;;;;;0.80;0.80;;;;;11.00;95642.00;;;;5069021;28;20219;-61
2023/04/28 06:35:16;;;;;;;0.97;0.97;;;;;11.10;95628.00;;;;5053407;28;20286;-61
2023/04/28 06:37:43;;;;;;;1.60;1.00;;;;;11.00;95628.00;;;;5070612;28;20222;-61
2023/04/28 06:40:11;;;;;;;1.17;1.17;;;;;11.10;95625.00;;;;5071091;28;20210;-61
2023/04/28 06:42:39;;;;;;;0.83;0.83;;;;;11.20;95623.00;;;;5052462;28;20223;-61
2023/04/28 06:45:08;;;;;;;1.07;1.03;;;;;11.30;95619.00;;;;5071265;28;20250;-60
2023/04/28 06:47:36;;;;;;;0.80;0.80;;;;;11.40;95623.00;;;;5052525;28;20335;-61
2023/04/28 06:50:03;;;;;;;0.80;0.80;;;;;11.40;95624.00;;;;5071052;28;20229;-60
2023/04/28 06:52:32;;;;;;;1.17;1.17;;;;;11.30;95624.00;;;;5070753;28;20191;-60
2023/04/28 06:54:59;;;;;;;0.70;0.70;;;;;11.30;95614.00;;;;5071094;28;20199;-60
2023/04/28 06:57:27;;;;;;;1.70;1.10;;;;;11.40;95618.00;;;;5070956;28;20195;-60
2023/04/28 06:59:54;;;;;;;1.43;1.37;;;;;11.40;95613.00;;;;5070542;28;20291;-60
2023/04/28 07:02:22;;;;;;;0.83;0.83;;;;;11.40;95617.00;;;;5071133;28;20195;-61
2023/04/28 07:04:49;;;;;;;0.53;0.53;;;;;11.50;95606.00;;;;5070776;28;20555;-60
2023/04/28 07:07:17;;;;;;;1.00;1.00;;;;;11.60;95604.00;;;;5070413;28;20702;-60
2023/04/28 07:09:45;;;;;;;0.60;0.60;;;;;11.60;95611.00;;;;5070880;28;20199;-60
2023/04/28 07:12:13;;;;;;;0.60;0.60;;;;;11.60;95616.00;;;;5071166;28;20191;-61
2023/04/28 07:14:41;;;;;;;1.57;1.13;;;;;11.50;95605.00;;;;5066260;28;20249;-60
2023/04/28 07:17:08;;;;;;;0.70;0.70;;;;;11.30;95606.00;;;;5066266;28;20191;-61
2023/04/28 07:19:36;;;;;;;0.93;0.93;;;;;11.40;95620.00;;;;5070863;28;20203;-61
2023/04/28 07:22:03;;;;;;;0.77;0.77;;;;;11.30;95622.00;;;;5069134;28;20204;-61
2023/04/28 07:24:31;;;;;;;0.70;0.70;;;;;11.40;95618.00;;;;5070060;28;20713;-61
2023/04/28 07:27:00;;;;;;;0.83;0.83;;;;;11.50;95617.00;;;;5066535;28;20226;-61
2023/04/28 07:29:32;;;;;;;0.60;0.60;;;;;11.40;95615.00;;;;5066080;28;20264;-61
2023/04/28 07:32:00;;;;;;;1.37;1.27;;;;;11.50;95609.00;;;;5068530;28;20203;-61
2023/04/28 07:34:28;;;;;;;0.60;0.60;;;;;11.40;95609.00;;;;5052690;28;20230;-61
2023/04/28 07:36:55;;;;;;;0.70;0.70;;;;;11.50;95603.00;;;;5070626;28;20195;-61
2023/04/28 07:39:23;;;;;;;0.70;0.70;;;;;11.50;95604.00;;;;5070438;28;20196;-61
2023/04/28 07:41:51;;;;;;;0.87;0.87;;;;;11.50;95608.00;;;;5071353;28;20681;-61
2023/04/28 07:44:19;;;;;;;1.10;1.07;;;;;11.70;95605.00;;;;5073671;28;20238;-61
2023/04/28 07:46:47;;;;;;;0.83;0.83;;;;;11.60;95614.00;;;;5073883;28;20215;-61
2023/04/28 07:49:14;;;;;;;0.60;0.60;;;;;11.40;95624.00;;;;5069141;28;20558;-61
2023/04/28 07:51:42;;;;;;;0.63;0.63;;;;;11.40;95613.00;;;;5073357;28;20196;-60
2023/04/28 07:54:09;;;;;;;0.60;0.60;;;;;11.50;95617.00;;;;5073824;28;20234;-60
2023/04/28 07:56:37;;;;;;;0.87;0.87;;;;;11.60;95628.00;;;;5073539;28;20187;-60
2023/04/28 07:59:04;;;;;;;0.80;0.80;;;;;11.70;95627.00;;;;5073551;28;20196;-60
2023/04/28 08:01:33;;;;;;;0.80;0.80;;;;;11.50;95631.00;;;;5073689;28;20556;-61
2023/04/28 08:04:01;;;;;;;1.77;1.67;;;;;11.60;95631.00;;;;5073513;28;20280;-60
2023/04/28 08:06:28;;;;;;;0.57;0.57;;;;;11.50;95646.00;;;;5073342;28;20211;-61
2023/04/28 08:08:56;;;;;;;0.83;0.83;;;;;11.60;95642.00;;;;5073532;28;20653;-60
2023/04/28 08:11:23;;;;;;;0.50;0.50;;;;;11.50;95640.00;;;;5073254;28;20197;-60
2023/04/28 08:13:51;;;;;;;0.63;0.63;;;;;11.50;95630.00;;;;5073582;28;20247;-60
2023/04/28 08:16:18;;;;;;;0.60;0.60;;;;;11.60;95630.00;;;;5073057;28;20213;-61
2023/04/28 08:18:47;;;;;;;1.93;1.17;;;;;11.70;95642.00;;;;5055378;28;20229;-60
2023/04/28 08:21:14;;;;;;;0.73;0.73;;;;;11.90;95642.00;;;;5073067;28;20195;-60
2023/04/28 08:23:42;;;;;;;0.70;0.70;;;;;12.00;95631.00;;;;5072865;28;20216;-60
2023/04/28 08:26:09;;;;;;;0.53;0.53;;;;;11.90;95636.00;;;;5072838;28;20226;-60
2023/04/28 08:28:36;;;;;;;0.80;0.80;;;;;12.00;95631.00;;;;5072123;28;20199;-60
2023/04/28 08:31:05;;;;;;;0.73;0.73;;;;;12.10;95637.00;;;;5072558;28;20191;-60
2023/04/28 08:33:32;;;;;;;0.70;0.70;;;;;12.40;95636.00;;;;5072770;28;20247;-60
2023/04/28 08:36:01;;;;;;;0.60;0.60;;;;;12.50;95632.00;;;;5071981;28;20702;-60
2023/04/28 08:38:28;;;;;;;0.60;0.60;;;;;12.60;95631.00;;;;5055196;28;20658;-60
2023/04/28 08:40:56;;;;;;;0.80;0.80;;;;;12.70;95639.00;;;;5072273;28;20600;-60
2023/04/28 08:43:25;;;;;;;0.50;0.50;;;;;12.70;95654.00;;;;5073364;28;20219;-60
2023/04/28 08:45:52;;;;;;;0.50;0.50;;;;;12.70;95645.00;;;;5072076;28;20195;-60
2023/04/28 08:48:21;;;;;;;0.50;0.50;;;;;12.70;95653.00;;;;5072964;28;20198;-60
2023/04/28 08:50:52;;;;;;;0.70;0.70;;;;;12.50;95663.00;;;;5072132;28;20199;-61
2023/04/28 08:53:25;;;;;;;0.60;0.60;;;;;12.50;95664.00;;;;5072978;28;20305;-60
2023/04/28 08:55:55;;;;;;;0.67;0.67;;;;;12.40;95670.00;;;;5071974;28;20253;-60
2023/04/28 08:58:24;;;;;;;0.60;0.60;;;;;12.70;95673.00;;;;5073017;28;20191;-60
2023/04/28 09:00:51;;;;;;;1.03;1.03;;;;;12.50;95669.00;;;;5072374;28;20570;-60
2023/04/28 09:03:19;;;;;;;0.60;0.60;;;;;12.50;95676.00;;;;5072248;28;20219;-59
2023/04/28 09:05:47;;;;;;;4.07;0.83;;;;;12.90;95666.00;;;;5071826;28;20309;-59
2023/04/28 09:08:15;;;;;;;3.07;0.87;;;;;13.00;95677.00;;;;5072095;28;20226;-60
2023/04/28 09:10:44;;;;;;;0.60;0.60;;;;;13.30;95676.00;;;;5072322;28;20206;-59
2023/04/28 09:13:25;;;;;;;0.50;0.50;;;;;13.30;95675.00;;;;5072312;28;20292;-59
2023/04/28 09:16:01;;;;;;;0.50;0.50;;;;;13.50;95681.00;;;;5069953;28;20610;-60
2023/04/28 09:18:31;;;;;;;0.60;0.60;;;;;13.50;95681.00;;;;5072294;28;20195;-60
2023/04/28 09:21:06;;;;;;;0.57;0.57;;;;;13.60;95686.00;;;;5071968;28;20191;-60
2023/04/28 09:23:34;;;;;;;0.60;0.60;;;;;13.70;95680.00;;;;5072293;28;20277;-59
2023/04/28 09:26:05;;;;;;;0.50;0.50;;;;;13.80;95685.00;;;;5071522;28;20540;-60
2023/04/28 09:28:33;;;;;;;0.60;0.60;;;;;14.00;95692.00;;;;5072326;28;20192;-59
2023/04/28 09:31:01;;;;;;;0.50;0.50;;;;;14.00;95687.00;;;;5071453;28;20202;-60
2023/04/28 09:33:29;;;;;;;0.50;0.50;;;;;14.10;95680.00;;;;5071625;28;20229;-61
2023/04/28 09:35:56;;;;;;;0.60;0.60;;;;;14.30;95684.00;;;;5070834;28;20218;-60
2023/04/28 09:38:24;;;;;;;0.50;0.50;;;;;14.30;95685.00;;;;5071610;28;20203;-60
2023/04/28 09:40:57;;;;;;;0.70;0.70;;;;;14.50;95683.00;;;;5071600;28;20225;-60
2023/04/28 09:43:31;;;;;;;0.63;0.63;;;;;14.70;95682.00;;;;5053276;28;20288;-60
2023/04/28 09:46:00;;;;;;;0.40;0.40;;;;;15.00;95671.00;;;;5070960;28;20211;-60
2023/04/28 09:48:29;;;;;;;0.70;0.70;;;;;15.00;95677.00;;;;5071564;28;20242;-60
2023/04/28 09:50:58;;;;;;;0.50;0.50;;;;;15.00;95673.00;;;;5053662;28;20211;-60
2023/04/28 09:53:26;;;;;;;0.60;0.60;;;;;15.00;95674.00;;;;5071439;28;20301;-60
2023/04/28 09:55:55;;;;;;;0.50;0.50;;;;;15.20;95672.00;;;;5071158;28;20204;-60
2023/04/28 09:58:24;;;;;;;0.47;0.47;;;;;15.00;95690.00;;;;5053429;28;20221;-62
2023/04/28 10:00:55;;;;;;;0.60;0.60;;;;;14.90;95687.00;;;;5053772;28;20196;-60
2023/04/28 10:03:24;;;;;;;0.47;0.47;;;;;14.90;95680.00;;;;5071220;28;20230;-60
2023/04/28 10:05:52;;;;;;;0.50;0.50;;;;;15.10;95690.00;;;;5070523;28;20195;-60
2023/04/28 10:08:20;;;;;;;0.40;0.40;;;;;15.40;95685.00;;;;5071081;28;20223;-60
2023/04/28 10:10:51;;;;;;;0.50;0.50;;;;;15.40;95688.00;;;;5072076;28;20207;-60
2023/04/28 10:13:20;;;;;;;0.50;0.50;;;;;15.50;95678.00;;;;5071105;28;20243;-60
2023/04/28 10:15:47;;;;;;;0.40;0.40;;;;;15.80;95681.00;;;;5071132;28;20694;-62
2023/04/28 10:18:17;;;;;;;0.80;0.80;;;;;15.90;95680.00;;;;5071063;28;20191;-60
2023/04/28 10:20:47;;;;;;;0.80;0.80;;;;;15.60;95685.00;;;;5071622;28;20187;-60
2023/04/28 10:24:02;;;;;;;0.50;0.50;;;;;15.50;95683.00;;;;5069996;28;20226;-61
2023/04/28 10:27:07;;;;;;;0.50;0.50;;;;;15.70;95688.00;;;;5066940;28;20199;-61
2023/04/28 10:29:35;;;;;;;0.50;0.50;;;;;15.70;95689.00;;;;4969951;28;20202;-60
2023/04/28 10:32:19;;;;;;;0.50;0.50;;;;;15.50;95695.00;;;;5048519;28;20214;-60
2023/04/28 10:34:48;;;;;;;0.50;0.50;;;;;15.50;95697.00;;;;5070859;28;20555;-61
2023/04/28 10:37:17;;;;;;;0.50;0.50;;;;;15.30;95694.00;;;;5070867;28;20198;-60
2023/04/28 10:40:23;;;;;;;0.50;0.50;;;;;15.50;95688.00;;;;5070940;28;20191;-60
2023/04/28 10:42:56;;;;;;;0.60;0.60;;;;;15.70;95691.00;;;;5070767;28;20704;-60
2023/04/28 10:46:01;;;;;;;0.50;0.50;;;;;15.40;95695.00;;;;5070804;28;20195;-62
2023/04/28 10:49:05;;;;;;;0.60;0.60;;;;;15.50;95698.00;;;;5070707;28;20217;-61
2023/04/28 10:51:34;;;;;;;0.67;0.67;;;;;15.60;95687.00;;;;5070828;28;20202;-62
2023/04/28 10:54:18;;;;;;;0.50;0.50;;;;;15.70;95694.00;;;;5052745;28;20231;-62
2023/04/28 10:57:20;;;;;;;0.60;0.60;;;;;15.80;95697.00;;;;5070646;28;20179;-61
2023/04/28 10:59:49;;;;;;;0.60;0.60;;;;;15.80;95695.00;;;;5070690;28;20191;-62
2023/04/28 11:02:41;;;;;;;0.50;0.50;;;;;15.60;95691.00;;;;5070818;28;20265;-62
2023/04/28 11:05:17;;;;;;;0.50;0.50;;;;;15.60;95688.00;;;;5042097;28;20207;-61
2023/04/28 11:08:33;;;;;;;0.40;0.40;;;;;15.50;95703.00;;;;5069381;28;20286;-61
2023/04/28 11:11:20;;;;;;;0.40;0.40;;;;;15.70;95693.00;;;;5069598;28;20188;-60
2023/04/28 11:13:48;;;;;;;0.47;0.47;;;;;15.80;95678.00;;;;5066328;28;20243;-60
2023/04/28 11:16:18;;;;;;;0.40;0.40;;;;;16.40;95680.00;;;;5072409;28;20552;-60
2023/04/28 11:18:57;;;;;;;0.60;0.60;;;;;16.30;95675.00;;;;5074547;28;20187;-61
2023/04/28 11:21:27;;;;;;;0.60;0.60;;;;;16.80;95681.00;;;;5073953;28;20191;-61
2023/04/28 11:23:55;;;;;;;0.50;0.50;;;;;17.30;95689.00;;;;5074988;28;20212;-61
2023/04/28 11:26:24;;;;;;;0.40;0.40;;;;;17.20;95669.00;;;;5073737;28;20218;-60
2023/04/28 11:28:53;;;;;;;0.40;0.40;;;;;17.60;95675.00;;;;5074319;28;20226;-61
2023/04/28 11:31:23;;;;;;;0.50;0.50;;;;;17.20;95672.00;;;;5074258;28;20326;-61
2023/04/28 11:33:56;;;;;;;0.50;0.50;;;;;17.10;95683.00;;;;5074141;28;20231;-61
2023/04/28 11:36:25;;;;;;;0.60;0.60;;;;;16.70;95677.00;;;;5074054;28;20195;-61
2023/04/28 11:38:53;;;;;;;0.70;0.70;;;;;16.70;95688.00;;;;5074428;28;20195;-60
2023/04/28 11:41:20;;;;;;;0.40;0.40;;;;;16.50;95684.00;;;;5073775;28;20564;-63
2023/04/28 11:43:49;;;;;;;0.60;0.60;;;;;16.50;95686.00;;;;5073005;28;20273;-62
2023/04/28 11:46:18;;;;;;;0.50;0.50;;;;;16.30;95678.00;;;;5072826;28;20210;-62
2023/04/28 11:48:46;;;;;;;0.50;0.50;;;;;16.10;95690.00;;;;5073801;28;20246;-60
2023/04/28 11:51:32;;;;;;;0.50;0.50;;;;;16.10;95687.00;;;;5073321;28;20203;-61
2023/04/28 11:54:00;;;;;;;0.60;0.60;;;;;16.20;95684.00;;;;5071164;28;20241;-61
2023/04/28 11:56:28;;;;;;;0.50;0.50;;;;;16.70;95665.00;;;;5073263;28;20199;-60
2023/04/28 11:59:08;;;;;;;0.70;0.70;;;;;16.60;95678.00;;;;5073381;28;20306;-61
2023/04/28 12:01:44;;;;;;;0.50;0.50;;;;;16.80;95664.00;;;;5072715;28;20188;-60
2023/04/28 12:04:12;;;;;;;0.40;0.40;;;;;17.20;95661.00;;;;5074071;28;20705;-60
2023/04/28 12:06:43;;;;;;;0.40;0.40;;;;;16.70;95666.00;;;;5073009;28;20608;-60
2023/04/28 12:09:20;;;;;;;0.57;0.57;;;;;16.80;95658.00;;;;5056145;28;20570;-60
2023/04/28 12:11:56;;;;;;;0.40;0.40;;;;;16.70;95656.00;;;;5073151;28;20310;-60
2023/04/28 12:14:25;;;;;;;0.80;0.80;;;;;17.00;95642.00;;;;5073387;28;20227;-61
2023/04/28 12:16:53;;;;;;;0.60;0.60;;;;;17.10;95657.00;;;;5072763;28;20206;-61
2023/04/28 12:19:20;;;;;;;0.50;0.50;;;;;17.40;95662.00;;;;5073534;28;20222;-61
2023/04/28 12:22:02;;;;;;;0.40;0.40;;;;;17.70;95673.00;;;;5072765;28;20265;-61
2023/04/28 12:24:30;;;;;;;0.50;0.50;;;;;17.10;95670.00;;;;5069850;28;20219;-61
2023/04/28 12:27:16;;;;;;;0.60;0.60;;;;;16.70;95666.00;;;;5072061;28;20202;-62
2023/04/28 12:29:48;;;;;;;0.70;0.70;;;;;16.50;95674.00;;;;5073304;28;20195;-63